Black Brook, Wisconsin
Current Conditions -  °F | °C
As of 5:55 PM on Saturday 22 Nov 2014 (Local Time) from KRNH Reporting Station
Haze Haze  
Wind Chill: 27°   Ceiling: 400
Heat Index: 34°   Visibility: 4mi
Dew Point: 34°   Wind: 9mph
Humidity: 100%   Direction: 160°SSE
Pressure: 29.65"   Gusts: NA
Location:  45.2417°N, 92.2543°W
Report Text: KRNH 222355Z AUTO 16008KT 4SM BR OVC004 01/01 A2965 RMK AO2 T00130013 10015 20011
Loading
Personal Weather Stations






























Interactive Weather Map New forecast layout! Learn more

10-Day Weather Forecast

Advertisements
Track Severe Weather on mobile